Time;durP1;ratioP1;P1;durP2;ratioP2;P2;SDS_P1;SDS_P2;PMS_P1;PMS_P2;Temp;Humidity;BMP_temperature;BMP_pressure;BME280_temperature;BME280_humidity;BME280_pressure;Samples;Min_cycle;Max_cycle;Signal;HPM_P1;HPM_P2
2024/01/11 00:01:49;;;;;;;142.40;60.30;;;;;;;-6.54;72.45;100917.68;217667;1264;140050;-63
2024/01/11 00:06:52;;;;;;;177.00;66.60;;;;;;;-6.64;72.37;100909.64;217292;1266;142854;-62
2024/01/11 00:11:56;;;;;;;136.50;54.00;;;;;;;-6.74;72.51;100893.52;216727;1267;140339;-62
2024/01/11 00:17:00;;;;;;;97.90;39.20;;;;;;;-6.79;72.44;100882.45;217062;1267;140490;-63
2024/01/11 00:22:03;;;;;;;158.90;68.00;;;;;;;-6.79;72.56;100868.80;219009;1267;141104;-61
2024/01/11 00:27:07;;;;;;;163.90;62.70;;;;;;;-6.78;72.47;100870.78;216576;1267;141987;-64
2024/01/11 00:32:10;;;;;;;165.60;64.80;;;;;;;-6.72;72.36;100878.90;218190;1264;141656;-64
2024/01/11 00:37:13;;;;;;;140.00;60.60;;;;;;;-6.67;72.37;100885.10;217151;1265;141783;-62
2024/01/11 00:42:16;;;;;;;137.20;62.10;;;;;;;-6.63;72.32;100876.77;216025;1264;141298;-63
2024/01/11 00:47:19;;;;;;;174.20;68.50;;;;;;;-6.64;72.34;100861.40;216028;1268;140650;-62
2024/01/11 00:52:22;;;;;;;149.50;62.20;;;;;;;-6.62;72.37;100845.52;217329;1267;156909;-64
2024/01/11 00:57:28;;;;;;;149.00;64.90;;;;;;;-6.62;72.27;100832.62;216477;1264;141005;-63
2024/01/11 01:02:30;;;;;;;142.00;60.60;;;;;;;-6.63;72.09;100826.41;217230;1267;141858;-64
2024/01/11 01:07:35;;;;;;;122.90;53.30;;;;;;;-6.60;72.09;100814.49;215657;1267;140678;-63
2024/01/11 01:12:39;;;;;;;107.40;46.40;;;;;;;-6.60;71.87;100804.78;216047;1267;235429;-62
2024/01/11 01:17:43;;;;;;;154.10;62.20;;;;;;;-6.63;72.01;100807.05;216048;1264;141768;-62
2024/01/11 01:22:48;;;;;;;172.30;65.60;;;;;;;-6.63;71.99;100816.91;216620;1268;140993;-62
2024/01/11 01:27:51;;;;;;;111.30;46.90;;;;;;;-6.62;72.00;100818.95;216558;1268;141124;-60
2024/01/11 01:33:03;;;;;;;151.10;57.10;;;;;;;-6.60;71.76;100791.67;216076;1264;140896;-62
2024/01/11 01:38:06;;;;;;;151.60;61.30;;;;;;;-6.55;71.79;100797.20;217232;1264;140823;-61
2024/01/11 01:43:09;;;;;;;172.50;73.80;;;;;;;-6.45;71.84;100795.17;216234;1264;142462;-62
2024/01/11 01:48:13;;;;;;;163.20;69.90;;;;;;;-6.38;72.03;100803.00;215779;1264;139734;-64
2024/01/11 01:53:19;;;;;;;156.00;73.20;;;;;;;-6.40;71.86;100802.83;216361;1264;140805;-63
2024/01/11 01:58:23;;;;;;;153.30;62.00;;;;;;;-6.48;71.79;100803.70;217144;1264;141212;-63
2024/01/11 02:03:28;;;;;;;121.00;54.50;;;;;;;-6.54;71.77;100811.64;217562;1264;141574;-64
2024/01/11 02:08:31;;;;;;;144.30;59.90;;;;;;;-6.60;71.67;100816.58;216880;1267;141615;-63
2024/01/11 02:13:35;;;;;;;134.50;58.70;;;;;;;-6.66;71.88;100811.06;219105;1264;140183;-64
2024/01/11 02:18:39;;;;;;;75.90;31.90;;;;;;;-6.70;71.79;100801.95;216682;1267;140594;-64
2024/01/11 02:23:47;;;;;;;145.20;61.90;;;;;;;-6.74;71.82;100816.43;218466;1264;140772;-63
2024/01/11 02:28:50;;;;;;;132.20;58.90;;;;;;;-6.73;71.66;100824.52;216798;1269;141271;-64
2024/01/11 02:33:54;;;;;;;134.70;53.10;;;;;;;-6.66;71.83;100815.36;216622;1267;140939;-64
2024/01/11 02:38:58;;;;;;;143.00;56.80;;;;;;;-6.59;71.96;100798.52;217290;1264;141653;-65
2024/01/11 02:44:01;;;;;;;139.10;54.00;;;;;;;-6.43;71.83;100807.34;216824;1269;140929;-62
2024/01/11 02:49:05;;;;;;;160.30;66.20;;;;;;;-6.36;71.72;100814.98;216542;1267;140126;-61
2024/01/11 02:54:09;;;;;;;154.50;64.10;;;;;;;-6.34;71.92;100801.02;217302;1264;141333;-63
2024/01/11 02:59:12;;;;;;;129.30;57.50;;;;;;;-6.38;71.71;100783.98;216878;1266;140079;-62
2024/01/11 03:04:16;;;;;;;148.50;65.20;;;;;;;-6.43;71.58;100759.73;216774;1264;140021;-63
2024/01/11 03:09:19;;;;;;;127.50;57.40;;;;;;;-6.47;71.86;100745.02;216225;1267;139907;-64
2024/01/11 03:14:22;;;;;;;136.50;56.60;;;;;;;-6.53;71.67;100732.23;215887;1269;141012;-63
2024/01/11 03:19:27;;;;;;;120.20;47.70;;;;;;;-6.60;71.70;100743.08;217083;1264;139949;-64
2024/01/11 03:24:30;;;;;;;104.90;43.60;;;;;;;-6.66;71.89;100736.73;215923;1264;140360;-64
2024/01/11 03:29:34;;;;;;;124.50;56.10;;;;;;;-6.72;71.86;100743.86;217156;1267;140247;-63
2024/01/11 03:34:37;;;;;;;126.60;53.40;;;;;;;-6.73;71.88;100757.29;215909;1264;140583;-63
2024/01/11 03:39:41;;;;;;;136.00;55.00;;;;;;;-6.66;72.04;100747.98;216810;1263;141453;-63
2024/01/11 03:44:44;;;;;;;117.30;51.40;;;;;;;-6.52;72.19;100747.92;217252;1264;140932;-62
2024/01/11 03:49:48;;;;;;;130.50;55.00;;;;;;;-6.31;72.15;100733.73;217446;1264;140545;-65
2024/01/11 03:54:50;;;;;;;126.50;55.70;;;;;;;-6.11;72.01;100709.31;217270;1264;140558;-64
2024/01/11 03:59:54;;;;;;;137.10;55.90;;;;;;;-6.00;71.83;100682.10;215938;1267;140872;-64
2024/01/11 04:04:57;;;;;;;136.70;59.20;;;;;;;-5.99;71.81;100680.29;217349;1264;140598;-64
2024/01/11 04:10:01;;;;;;;125.20;53.90;;;;;;;-5.99;71.77;100705.92;219121;1263;140135;-64
2024/01/11 04:15:05;;;;;;;116.50;49.80;;;;;;;-5.96;71.72;100726.67;218983;1264;140702;-63
2024/01/11 04:20:10;;;;;;;116.00;47.30;;;;;;;-5.93;71.59;100734.42;216099;1264;140253;-64
2024/01/11 04:25:13;;;;;;;45.70;19.50;;;;;;;-5.94;71.87;100727.56;217466;1264;140350;-65
2024/01/11 04:30:20;;;;;;;97.50;53.00;;;;;;;-5.99;71.72;100687.59;217770;1264;140663;-63
2024/01/11 04:35:23;;;;;;;126.70;49.50;;;;;;;-6.04;71.71;100683.06;216962;1264;140922;-64
2024/01/11 04:40:31;;;;;;;88.40;39.40;;;;;;;-6.09;71.65;100672.67;216525;1267;140131;-66
2024/01/11 04:45:35;;;;;;;130.00;55.10;;;;;;;-6.10;71.41;100659.41;216666;1264;142542;-64
2024/01/11 04:50:38;;;;;;;111.50;51.40;;;;;;;-6.14;71.52;100649.85;215745;1264;140494;-64
2024/01/11 04:55:41;;;;;;;91.60;38.00;;;;;;;-6.19;71.80;100640.52;216341;1264;141243;-63
2024/01/11 05:00:45;;;;;;;77.40;32.10;;;;;;;-6.25;71.84;100607.03;215986;1264;139795;-64
2024/01/11 05:05:48;;;;;;;85.70;34.10;;;;;;;-6.32;72.03;100604.38;217856;1264;140132;-63
2024/01/11 05:10:52;;;;;;;72.30;30.80;;;;;;;-6.36;72.24;100587.56;215973;1265;140460;-63
2024/01/11 05:15:55;;;;;;;90.00;37.30;;;;;;;-6.43;72.25;100567.79;216374;1264;139989;-63
2024/01/11 05:20:59;;;;;;;98.20;35.70;;;;;;;-6.45;72.53;100582.16;217583;1264;140464;-65
2024/01/11 05:26:03;;;;;;;91.70;40.70;;;;;;;-6.42;72.72;100620.30;216361;1264;141152;-64
2024/01/11 05:31:09;;;;;;;96.80;40.50;;;;;;;-6.41;72.95;100620.29;216031;1265;140336;-64
2024/01/11 05:36:12;;;;;;;89.80;38.80;;;;;;;-6.40;73.29;100612.20;216724;1264;140752;-64
2024/01/11 05:41:15;;;;;;;80.40;36.80;;;;;;;-6.37;73.49;100597.70;217709;1264;139646;-65
2024/01/11 05:46:18;;;;;;;71.90;28.30;;;;;;;-6.38;73.65;100615.05;216245;1264;141331;-64
2024/01/11 05:51:21;;;;;;;72.40;33.70;;;;;;;-6.39;73.61;100618.05;215949;1267;141037;-63
2024/01/11 05:56:25;;;;;;;75.10;34.30;;;;;;;-6.41;73.90;100612.29;219045;1264;141457;-64
2024/01/11 06:01:27;;;;;;;87.70;36.90;;;;;;;-6.38;74.05;100630.05;216567;1263;142680;-64
2024/01/11 06:06:31;;;;;;;78.50;34.20;;;;;;;-6.24;74.17;100629.30;218960;1263;141073;-66
2024/01/11 06:11:34;;;;;;;71.00;35.50;;;;;;;-6.15;74.33;100616.03;216446;1264;140745;-63
2024/01/11 06:16:37;;;;;;;74.00;33.90;;;;;;;-6.08;74.71;100617.39;218977;1264;140350;-64
2024/01/11 06:21:40;;;;;;;73.20;32.90;;;;;;;-6.06;74.62;100624.75;218473;1264;140236;-64
2024/01/11 06:26:44;;;;;;;70.10;33.70;;;;;;;-6.09;74.69;100632.90;218217;1264;140668;-63
2024/01/11 06:31:47;;;;;;;54.80;22.30;;;;;;;-6.12;74.85;100636.58;216006;1264;140221;-64
2024/01/11 06:36:50;;;;;;;52.60;24.70;;;;;;;-6.16;74.81;100628.70;216132;1264;140454;-63
2024/01/11 06:41:54;;;;;;;65.60;28.40;;;;;;;-6.19;75.17;100611.46;216136;1264;140367;-64
2024/01/11 06:46:57;;;;;;;70.30;29.30;;;;;;;-6.19;75.54;100592.45;215622;1267;140615;-66
2024/01/11 06:52:00;;;;;;;78.70;32.70;;;;;;;-6.14;75.42;100599.66;216100;1264;140774;-64
2024/01/11 06:57:04;;;;;;;80.40;35.60;;;;;;;-6.08;75.69;100621.05;217214;1264;141078;-64
2024/01/11 07:02:07;;;;;;;73.50;34.10;;;;;;;-6.07;75.86;100608.52;217423;1264;140043;-64
2024/01/11 07:07:10;;;;;;;66.10;33.80;;;;;;;-6.06;76.03;100604.86;216044;1267;140037;-64
2024/01/11 07:12:13;;;;;;;70.30;31.70;;;;;;;-6.06;76.23;100586.52;215933;1267;142282;-63
2024/01/11 07:17:16;;;;;;;60.90;26.20;;;;;;;-6.09;76.27;100584.27;217022;1264;140143;-64
2024/01/11 07:22:20;;;;;;;65.50;29.50;;;;;;;-6.11;76.55;100592.36;215996;1267;140245;-64
2024/01/11 07:27:23;;;;;;;67.10;25.60;;;;;;;-6.06;76.49;100583.02;216150;1266;141715;-63
2024/01/11 07:32:27;;;;;;;64.60;34.50;;;;;;;-5.97;76.93;100574.78;217949;1263;141659;-64
2024/01/11 07:37:31;;;;;;;63.50;29.10;;;;;;;-5.96;76.84;100563.96;217281;1263;141216;-65
2024/01/11 07:42:34;;;;;;;68.50;27.70;;;;;;;-5.93;77.02;100574.79;216321;1264;139986;-64
2024/01/11 07:47:39;;;;;;;38.40;21.50;;;;;;;-5.91;77.19;100575.41;217995;1264;140992;-63
2024/01/11 07:52:42;;;;;;;66.20;32.10;;;;;;;-5.89;77.37;100565.36;216916;1264;142063;-65
2024/01/11 07:57:45;;;;;;;66.10;28.50;;;;;;;-5.85;77.24;100556.07;216365;1264;142454;-63
2024/01/11 08:02:49;;;;;;;60.60;27.20;;;;;;;-5.84;77.25;100567.08;219050;1264;140325;-64
2024/01/11 08:07:53;;;;;;;60.80;30.10;;;;;;;-5.82;77.34;100565.90;218674;1264;141247;-64
2024/01/11 08:12:57;;;;;;;66.70;27.30;;;;;;;-5.80;77.60;100573.11;218983;1264;140058;-65
2024/01/11 08:18:01;;;;;;;33.20;17.60;;;;;;;-5.77;77.46;100583.61;217892;1263;141873;-62
2024/01/11 08:23:05;;;;;;;53.90;23.80;;;;;;;-5.74;77.54;100585.35;216537;1264;139839;-63
2024/01/11 08:28:08;;;;;;;53.60;24.40;;;;;;;-5.70;77.61;100580.98;217395;1263;141080;-62
2024/01/11 08:33:12;;;;;;;64.00;25.10;;;;;;;-5.59;77.92;100575.11;217268;1264;140057;-65
2024/01/11 08:38:17;;;;;;;63.40;26.50;;;;;;;-5.51;78.06;100572.14;216484;1264;139692;-64
2024/01/11 08:43:24;;;;;;;52.20;24.20;;;;;;;-5.45;78.15;100571.84;216192;1264;140069;-63
2024/01/11 08:48:28;;;;;;;42.50;22.10;;;;;;;-5.39;78.50;100569.32;215859;1264;140849;-64
2024/01/11 08:53:32;;;;;;;37.70;16.30;;;;;;;-5.36;78.59;100569.80;216544;1264;140400;-64
2024/01/11 08:58:36;;;;;;;53.80;20.10;;;;;;;-5.33;78.69;100572.89;215897;1267;140104;-64
2024/01/11 09:03:40;;;;;;;52.00;22.70;;;;;;;-5.28;78.78;100567.31;216342;1267;141127;-64
2024/01/11 09:08:43;;;;;;;41.70;22.00;;;;;;;-5.25;78.93;100567.59;216845;1267;141399;-63
2024/01/11 09:13:47;;;;;;;57.60;24.70;;;;;;;-5.24;79.14;100572.03;216636;1264;140104;-64
2024/01/11 09:18:50;;;;;;;38.70;18.80;;;;;;;-5.22;79.40;100568.28;216051;1264;140847;-63
2024/01/11 09:23:53;;;;;;;42.20;19.10;;;;;;;-5.20;79.44;100579.20;216028;1264;140757;-62
2024/01/11 09:28:56;;;;;;;50.00;20.70;;;;;;;-5.16;79.54;100571.37;216353;1264;140774;-65
2024/01/11 09:33:59;;;;;;;45.90;20.80;;;;;;;-5.18;79.25;100573.09;215990;1267;140809;-63
2024/01/11 09:39:03;;;;;;;42.00;19.30;;;;;;;-5.18;79.84;100578.45;217056;1265;140578;-63
2024/01/11 09:44:06;;;;;;;44.60;20.50;;;;;;;-5.20;79.88;100578.96;216584;1264;140788;-63
2024/01/11 09:49:11;;;;;;;39.10;17.10;;;;;;;-5.12;80.37;100570.44;216090;1264;140557;-63
2024/01/11 09:54:15;;;;;;;42.70;19.10;;;;;;;-5.05;80.41;100567.48;217249;1264;140654;-64
2024/01/11 09:59:22;;;;;;;43.00;17.10;;;;;;;-4.99;80.61;100566.66;219055;1264;141893;-64
2024/01/11 10:04:25;;;;;;;43.20;19.20;;;;;;;-4.86;80.90;100564.98;218013;1264;140981;-64
2024/01/11 10:09:28;;;;;;;43.20;20.40;;;;;;;-4.79;80.61;100558.77;218981;1264;140753;-64
2024/01/11 10:14:32;;;;;;;42.90;19.20;;;;;;;-4.70;81.16;100555.45;219006;1264;142461;-63
2024/01/11 10:19:36;;;;;;;30.90;13.10;;;;;;;-4.60;81.20;100547.73;217867;1264;141268;-64
2024/01/11 10:24:40;;;;;;;39.10;16.40;;;;;;;-4.56;80.81;100548.29;217370;1264;140266;-64
2024/01/11 10:29:46;;;;;;;42.40;19.20;;;;;;;-4.51;81.14;100544.94;216625;1264;403907;-64
2024/01/11 10:34:50;;;;;;;42.00;18.00;;;;;;;-4.46;81.22;100538.82;216402;1264;140655;-63
2024/01/11 10:39:55;;;;;;;43.30;16.90;;;;;;;-4.43;81.41;100533.88;215914;1263;140664;-64
2024/01/11 10:45:06;;;;;;;39.60;17.80;;;;;;;-4.42;81.74;100525.17;216871;1264;140544;-63
2024/01/11 10:50:10;;;;;;;33.30;15.50;;;;;;;-4.38;81.69;100520.59;215726;1264;140636;-65
2024/01/11 10:55:14;;;;;;;42.90;17.80;;;;;;;-4.39;81.88;100519.92;217150;1265;140910;-64
2024/01/11 11:00:18;;;;;;;28.10;15.10;;;;;;;-4.38;82.06;100519.30;216355;1265;221197;-64
2024/01/11 11:05:22;;;;;;;40.10;15.10;;;;;;;-4.35;82.18;100499.71;216419;1267;143295;-63
2024/01/11 11:10:27;;;;;;;36.00;13.70;;;;;;;-4.35;82.32;100479.04;216076;1265;141667;-62
2024/01/11 11:15:33;;;;;;;35.70;18.50;;;;;;;-4.38;82.52;100474.89;217350;1264;142950;-64
2024/01/11 11:20:36;;;;;;;39.70;17.90;;;;;;;-4.35;82.79;100473.66;216040;1267;140260;-64
2024/01/11 11:25:40;;;;;;;42.70;16.90;;;;;;;-4.30;82.99;100467.36;215872;1265;140441;-63
2024/01/11 11:30:47;;;;;;;45.00;16.20;;;;;;;-4.23;83.04;100463.98;217294;1264;140989;-64
2024/01/11 11:35:54;;;;;;;47.30;21.00;;;;;;;-4.16;83.17;100458.91;216737;1264;141173;-64
2024/01/11 11:40:59;;;;;;;49.60;20.40;;;;;;;-4.12;83.40;100460.82;215861;1267;141459;-64
2024/01/11 11:46:07;;;;;;;41.00;17.80;;;;;;;-4.05;83.58;100460.30;218854;1263;140934;-64
2024/01/11 11:51:16;;;;;;;46.00;16.40;;;;;;;-3.98;83.44;100457.80;218896;1264;142032;-65
2024/01/11 11:56:23;;;;;;;40.70;15.50;;;;;;;-3.94;83.48;100452.43;218903;1264;141138;-65
2024/01/11 12:01:27;;;;;;;32.30;14.40;;;;;;;-3.93;83.51;100444.50;217142;1265;140528;-63
2024/01/11 12:06:30;;;;;;;31.30;16.20;;;;;;;-3.93;83.53;100442.13;219019;1264;140749;-64
2024/01/11 12:11:34;;;;;;;47.50;20.40;;;;;;;-3.90;83.89;100428.48;218044;1264;140674;-64
2024/01/11 12:16:38;;;;;;;48.50;19.60;;;;;;;-3.80;83.87;100413.11;216903;1264;141659;-64
2024/01/11 12:21:41;;;;;;;43.50;17.40;;;;;;;-3.75;83.98;100404.14;216637;1264;140361;-62
2024/01/11 12:26:46;;;;;;;42.20;17.00;;;;;;;-3.73;83.82;100405.54;216035;1264;141661;-63
2024/01/11 12:31:52;;;;;;;45.50;18.60;;;;;;;-3.75;83.86;100409.20;216916;1264;140695;-62
2024/01/11 12:37:00;;;;;;;36.90;19.30;;;;;;;-3.73;84.08;100407.67;216397;1266;142026;-64
2024/01/11 12:42:04;;;;;;;49.40;18.60;;;;;;;-3.69;84.28;100418.65;216790;1265;142068;-63
2024/01/11 12:47:08;;;;;;;45.00;19.40;;;;;;;-3.64;84.56;100422.89;215969;1264;141143;-63
2024/01/11 12:52:16;;;;;;;38.80;15.60;;;;;;;-3.60;84.43;100424.75;216482;1264;140619;-63
2024/01/11 12:57:19;;;;;;;48.60;18.30;;;;;;;-3.55;84.86;100406.14;216073;1265;140728;-63
2024/01/11 13:02:23;;;;;;;40.10;16.40;;;;;;;-3.55;84.58;100402.84;216383;1265;140358;-64
2024/01/11 13:07:30;;;;;;;47.20;20.20;;;;;;;-3.58;84.83;100416.45;216237;1267;141905;-63
2024/01/11 13:12:34;;;;;;;41.50;16.80;;;;;;;-3.57;85.07;100422.83;216741;1264;141470;-62
2024/01/11 13:17:38;;;;;;;52.50;19.80;;;;;;;-3.56;84.86;100427.20;216287;1265;141535;-64
2024/01/11 13:22:42;;;;;;;23.90;11.90;;;;;;;-3.53;85.21;100424.20;217059;1264;140331;-63
2024/01/11 13:27:46;;;;;;;48.90;18.00;;;;;;;-3.47;85.28;100428.24;217728;1264;140166;-63
2024/01/11 13:32:51;;;;;;;40.00;15.80;;;;;;;-3.43;85.28;100428.06;216070;1264;142311;-64
2024/01/11 13:37:55;;;;;;;37.80;16.00;;;;;;;-3.41;85.48;100425.47;217616;1267;141117;-64
2024/01/11 13:42:59;;;;;;;35.10;15.90;;;;;;;-3.38;85.76;100428.69;215944;1265;141457;-63
2024/01/11 13:48:06;;;;;;;44.80;20.90;;;;;;;-3.36;85.85;100426.42;216245;1264;141779;-63
2024/01/11 13:53:09;;;;;;;46.00;20.60;;;;;;;-3.29;86.33;100421.89;218993;1264;141037;-65
2024/01/11 13:58:13;;;;;;;41.20;18.00;;;;;;;-3.23;86.24;100419.70;218968;1263;141167;-64
2024/01/11 14:03:16;;;;;;;44.10;17.20;;;;;;;-3.17;86.31;100410.57;217834;1265;141105;-64
2024/01/11 14:08:20;;;;;;;39.40;17.00;;;;;;;-3.13;86.49;100407.41;217622;1265;141694;-64
2024/01/11 14:13:24;;;;;;;29.50;12.30;;;;;;;-3.07;86.59;100407.83;216488;1265;140963;-62
2024/01/11 14:18:26;;;;;;;38.60;17.60;;;;;;;-3.07;86.66;100405.52;215741;1264;140784;-63
2024/01/11 14:23:31;;;;;;;45.10;19.40;;;;;;;-3.05;86.81;100402.20;217298;1267;142359;-64
2024/01/11 14:28:42;;;;;;;37.20;16.90;;;;;;;-3.01;87.11;100391.08;216328;1267;140401;-63
2024/01/11 14:33:46;;;;;;;44.50;16.50;;;;;;;-2.94;87.27;100379.86;215849;1267;140654;-63
2024/01/11 14:38:50;;;;;;;34.50;18.00;;;;;;;-2.86;87.45;100382.36;217000;1267;141024;-65
2024/01/11 14:43:54;;;;;;;37.10;15.70;;;;;;;-2.82;87.50;100377.43;216865;1267;141651;-67
2024/01/11 14:48:57;;;;;;;46.50;18.40;;;;;;;-2.80;87.39;100376.54;216046;1264;140186;-65
2024/01/11 14:54:00;;;;;;;28.40;12.70;;;;;;;-2.79;87.54;100377.39;215853;1265;140524;-66
2024/01/11 14:59:03;;;;;;;32.40;14.80;;;;;;;-2.76;87.75;100385.63;217329;1264;140711;-65
2024/01/11 15:04:09;;;;;;;27.40;15.30;;;;;;;-2.74;87.75;100394.10;217215;1264;141292;-64
2024/01/11 15:09:30;;;;;;;30.20;14.50;;;;;;;-2.73;87.76;100403.39;216820;1265;140232;-66
2024/01/11 15:14:33;;;;;;;35.40;15.70;;;;;;;-2.73;87.82;100416.15;216290;1264;140655;-67
2024/01/11 15:19:37;;;;;;;38.50;17.20;;;;;;;-2.72;88.15;100412.20;215865;1267;140366;-63
2024/01/11 15:24:42;;;;;;;47.10;17.80;;;;;;;-2.69;88.18;100409.54;216446;1264;140773;-67
2024/01/11 15:29:46;;;;;;;36.40;17.70;;;;;;;-2.66;88.33;100404.27;216649;1265;140833;-66
2024/01/11 15:34:49;;;;;;;30.90;16.30;;;;;;;-2.64;88.23;100405.42;217185;1264;140891;-63
2024/01/11 15:39:54;;;;;;;36.50;17.30;;;;;;;-2.62;88.45;100402.55;215901;1267;140177;-63
2024/01/11 15:44:57;;;;;;;34.40;17.50;;;;;;;-2.60;88.68;100405.64;216833;1265;140318;-64
2024/01/11 15:49:59;;;;;;;31.90;16.10;;;;;;;-2.58;88.68;100397.40;216564;1266;140362;-66
2024/01/11 15:55:03;;;;;;;30.20;15.30;;;;;;;-2.58;88.69;100401.28;216139;1265;141287;-66
2024/01/11 16:00:09;;;;;;;40.60;19.30;;;;;;;-2.55;88.82;100412.71;217848;1265;141480;-67
2024/01/11 16:05:13;;;;;;;33.10;15.00;;;;;;;-2.54;88.84;100411.86;216361;1265;140288;-64
2024/01/11 16:10:16;;;;;;;37.60;16.00;;;;;;;-2.51;88.83;100409.67;215701;1267;141205;-66
2024/01/11 16:15:20;;;;;;;39.80;16.20;;;;;;;-2.46;88.92;100413.98;215820;1264;141419;-64
2024/01/11 16:20:23;;;;;;;40.60;18.50;;;;;;;-2.43;88.84;100415.09;215726;1264;141972;-66
2024/01/11 16:25:26;;;;;;;38.50;19.00;;;;;;;-2.42;89.04;100409.89;215698;1265;141012;-66
2024/01/11 16:30:28;;;;;;;38.60;19.50;;;;;;;-2.38;89.06;100410.10;215833;1267;141539;-64
2024/01/11 16:35:31;;;;;;;43.50;19.20;;;;;;;-2.35;89.16;100417.90;217069;1267;141341;-65
2024/01/11 16:40:43;;;;;;;36.80;16.70;;;;;;;-2.30;89.20;100428.77;215866;1265;140719;-64
2024/01/11 16:45:46;;;;;;;41.80;20.20;;;;;;;-2.26;89.29;100434.02;216661;1265;141393;-64
2024/01/11 16:50:49;;;;;;;31.50;16.80;;;;;;;-2.21;89.47;100450.02;216238;1265;142286;-64
2024/01/11 16:55:52;;;;;;;33.60;14.90;;;;;;;-2.20;89.34;100448.73;216264;1267;141500;-64
2024/01/11 17:00:57;;;;;;;33.60;14.70;;;;;;;-2.18;89.58;100440.38;215837;1267;141076;-64
2024/01/11 17:06:00;;;;;;;35.00;17.90;;;;;;;-2.14;89.50;100441.42;216221;1265;140574;-65
2024/01/11 17:11:02;;;;;;;29.80;15.80;;;;;;;-2.10;89.66;100434.56;215803;1267;140634;-63
2024/01/11 17:16:06;;;;;;;31.40;14.30;;;;;;;-2.06;89.79;100435.59;215673;1264;143740;-64
2024/01/11 17:21:10;;;;;;;29.70;15.90;;;;;;;-2.03;89.90;100439.88;215908;1265;140451;-65
2024/01/11 17:26:13;;;;;;;36.00;15.40;;;;;;;-1.98;89.87;100446.80;218972;1265;140753;-63
2024/01/11 17:31:16;;;;;;;36.90;15.10;;;;;;;-1.95;89.97;100448.39;216260;1265;140563;-64
2024/01/11 17:36:18;;;;;;;34.80;18.60;;;;;;;-1.92;89.93;100450.23;217865;1264;141288;-65
2024/01/11 17:41:21;;;;;;;29.80;16.50;;;;;;;-1.88;90.10;100451.76;218988;1265;141617;-67
2024/01/11 17:46:24;;;;;;;33.80;16.40;;;;;;;-1.83;89.92;100454.98;218973;1267;141621;-67
2024/01/11 17:51:32;;;;;;;24.60;10.70;;;;;;;-1.77;89.95;100448.30;219023;1265;141381;-66
2024/01/11 17:56:39;;;;;;;37.80;18.80;;;;;;;-1.73;89.99;100450.41;217032;1265;140388;-67
2024/01/11 18:01:43;;;;;;;37.90;18.60;;;;;;;-1.66;90.21;100453.34;216746;1267;226423;-68
2024/01/11 18:06:46;;;;;;;42.00;18.70;;;;;;;-1.60;90.28;100446.13;216916;1267;141173;-64
2024/01/11 18:11:52;;;;;;;31.20;17.40;;;;;;;-1.56;90.46;100444.70;215634;1266;140745;-66
2024/01/11 18:16:55;;;;;;;25.00;12.60;;;;;;;-1.50;90.33;100440.62;215855;1267;140676;-65
2024/01/11 18:21:59;;;;;;;35.60;16.90;;;;;;;-1.46;90.37;100442.41;215778;1268;141087;-69
2024/01/11 18:27:07;;;;;;;29.30;15.20;;;;;;;-1.45;90.56;100442.96;215489;1269;142454;-68
2024/01/11 18:32:12;;;;;;;31.40;17.20;;;;;;;-1.43;90.64;100444.33;215643;1264;140535;-68
2024/01/11 18:37:16;;;;;;;27.80;14.60;;;;;;;-1.38;90.80;100442.32;215645;1268;141167;-67
2024/01/11 18:42:25;;;;;;;31.00;14.90;;;;;;;-1.36;90.75;100438.63;216396;1264;141355;-67
2024/01/11 18:47:28;;;;;;;35.00;21.00;;;;;;;-1.33;91.00;100444.19;216166;1265;141047;-66
2024/01/11 18:52:30;;;;;;;32.00;19.90;;;;;;;-1.28;90.98;100439.16;217056;1264;140506;-66
2024/01/11 18:57:34;;;;;;;22.90;15.50;;;;;;;-1.22;91.23;100444.30;215784;1264;140496;-64
2024/01/11 19:02:37;;;;;;;32.80;18.20;;;;;;;-1.13;91.44;100441.27;215758;1268;140297;-65
2024/01/11 19:07:40;;;;;;;23.50;13.30;;;;;;;-1.07;91.27;100448.70;215649;1267;140876;-65
2024/01/11 19:12:44;;;;;;;25.60;14.50;;;;;;;-1.04;91.24;100448.95;216289;1268;141381;-66
2024/01/11 19:17:47;;;;;;;27.60;15.00;;;;;;;-0.99;91.37;100458.48;216653;1267;141001;-67
2024/01/11 19:22:51;;;;;;;29.00;14.50;;;;;;;-0.93;91.78;100461.77;215826;1267;141375;-64
2024/01/11 19:27:59;;;;;;;20.90;13.50;;;;;;;-0.88;91.75;100468.58;216644;1268;140654;-63
2024/01/11 19:33:02;;;;;;;;;;;;;;;-0.84;91.97;100469.98;217630;1267;140653;-65
2024/01/11 19:38:07;;;;;;;30.70;15.10;;;;;;;-0.80;91.82;100473.05;216239;1268;127431;-64
2024/01/11 19:43:10;;;;;;;24.70;13.10;;;;;;;-0.77;92.11;100476.95;218640;1268;140919;-64
2024/01/11 19:48:14;;;;;;;26.20;16.20;;;;;;;-0.75;92.16;100488.25;215788;1267;140684;-64
2024/01/11 19:53:17;;;;;;;32.10;16.40;;;;;;;-0.69;92.08;100494.54;218255;1267;140658;-67
2024/01/11 19:58:19;;;;;;;27.70;17.30;;;;;;;-0.65;92.09;100495.22;215920;1268;140923;-68
2024/01/11 20:03:22;;;;;;;26.80;16.10;;;;;;;-0.62;92.34;100505.05;216032;1267;141060;-68
2024/01/11 20:08:26;;;;;;;30.00;16.70;;;;;;;-0.58;92.15;100511.63;216113;1268;141493;-66
2024/01/11 20:13:29;;;;;;;26.10;16.00;;;;;;;-0.56;92.16;100521.10;215900;1269;140378;-69
2024/01/11 20:18:32;;;;;;;22.00;13.00;;;;;;;-0.55;92.15;100531.08;217057;1269;140781;-67
2024/01/11 20:23:41;;;;;;;27.70;16.60;;;;;;;-0.54;92.09;100540.61;216522;1269;141276;-69
2024/01/11 20:28:45;;;;;;;27.20;15.70;;;;;;;-0.52;92.47;100549.51;216309;1267;140956;-67
2024/01/11 20:33:48;;;;;;;35.40;16.20;;;;;;;-0.51;92.43;100559.52;217318;1267;141551;-66
2024/01/11 20:38:51;;;;;;;28.60;17.70;;;;;;;-0.51;92.43;100562.27;217106;1265;142663;-65
2024/01/11 20:43:55;;;;;;;26.60;15.90;;;;;;;-0.49;92.09;100564.17;215871;1269;140302;-65
2024/01/11 20:48:57;;;;;;;32.20;17.20;;;;;;;-0.46;92.21;100575.30;215770;1267;142144;-64
2024/01/11 20:54:00;;;;;;;27.80;17.00;;;;;;;-0.45;92.45;100578.46;215976;1264;141027;-66
2024/01/11 20:59:03;;;;;;;33.90;16.10;;;;;;;-0.44;92.29;100576.61;215949;1269;140771;-66
2024/01/11 21:04:06;;;;;;;22.10;14.50;;;;;;;-0.43;92.26;100576.00;215722;1267;141077;-65
2024/01/11 21:09:10;;;;;;;19.60;12.40;;;;;;;-0.46;92.38;100576.17;215988;1264;140601;-65
2024/01/11 21:14:13;;;;;;;24.50;13.30;;;;;;;-0.51;92.10;100580.85;218029;1264;141616;-65
2024/01/11 21:19:17;;;;;;;20.70;12.60;;;;;;;-0.57;92.22;100588.39;215939;1264;140967;-67
2024/01/11 21:24:22;;;;;;;24.00;12.50;;;;;;;-0.64;91.78;100590.08;215957;1264;141057;-66
2024/01/11 21:29:25;;;;;;;27.30;14.90;;;;;;;-0.72;91.53;100600.54;216090;1267;140664;-66
2024/01/11 21:34:29;;;;;;;23.90;12.90;;;;;;;-0.76;91.62;100608.81;216450;1264;140689;-66
2024/01/11 21:39:34;;;;;;;19.70;13.90;;;;;;;-0.83;91.22;100619.04;215974;1267;141124;-65
2024/01/11 21:44:37;;;;;;;20.40;12.30;;;;;;;-0.89;91.86;100617.69;217995;1264;140868;-66
2024/01/11 21:49:40;;;;;;;23.20;12.10;;;;;;;-0.96;91.55;100615.67;215966;1264;140507;-65
2024/01/11 21:54:43;;;;;;;18.00;12.40;;;;;;;-1.04;91.22;100622.70;216449;1264;140799;-68
2024/01/11 21:59:47;;;;;;;21.50;13.50;;;;;;;-1.11;90.92;100625.02;216104;1264;140585;-67
2024/01/11 22:04:50;;;;;;;16.80;10.90;;;;;;;-1.17;91.36;100628.96;217491;1264;140672;-67
2024/01/11 22:09:54;;;;;;;23.20;10.10;;;;;;;-1.26;90.75;100633.58;216066;1267;141767;-67
2024/01/11 22:14:56;;;;;;;20.50;9.90;;;;;;;-1.37;90.47;100634.73;216181;1265;140819;-64
2024/01/11 22:20:00;;;;;;;20.80;10.90;;;;;;;-1.48;90.40;100637.15;216667;1267;140736;-67
2024/01/11 22:25:05;;;;;;;16.60;8.70;;;;;;;-1.56;90.50;100631.79;218007;1264;140692;-65